createdAt,value
2022-10-21T00:00:15.314Z,9.45
2022-10-21T00:02:46.256Z,9.38
2022-10-21T00:05:16.253Z,8.80
2022-10-21T00:07:45.784Z,9.20
2022-10-21T00:10:15.653Z,9.30
2022-10-21T00:12:45.456Z,8.75
2022-10-21T00:15:15.259Z,10.27
2022-10-21T00:17:45.044Z,9.00
2022-10-21T00:20:15.078Z,10.13
2022-10-21T00:22:44.947Z,10.07
2022-10-21T00:29:47.260Z,9.57
2022-10-21T00:32:17.354Z,8.77
2022-10-21T00:34:47.408Z,9.05
2022-10-21T00:37:17.560Z,9.82
2022-10-21T00:39:44.816Z,9.98
2022-10-21T00:42:23.222Z,8.77
2022-10-21T00:45:07.181Z,10.07
2022-10-21T00:48:10.117Z,9.88
2022-10-21T00:51:14.652Z,9.70
2022-10-21T00:53:50.076Z,9.32
2022-10-21T00:56:28.235Z,9.98
2022-10-21T00:59:02.838Z,9.77
2022-10-21T01:01:33.729Z,8.73
2022-10-21T01:04:04.065Z,8.65
2022-10-21T01:06:34.098Z,8.90
2022-10-21T01:09:06.569Z,9.27
2022-10-21T01:11:47.440Z,9.00
2022-10-21T01:18:26.646Z,8.18
2022-10-21T01:21:26.581Z,8.77
2022-10-21T01:25:07.289Z,8.68
2022-10-21T01:28:20.834Z,8.88
2022-10-21T01:31:38.551Z,8.95
2022-10-21T01:34:41.762Z,9.40
2022-10-21T01:38:04.150Z,8.80
2022-10-21T01:40:51.495Z,9.98
2022-10-21T01:43:44.157Z,8.73
2022-10-21T01:46:40.508Z,9.30
2022-10-21T01:49:27.279Z,9.65
2022-10-21T01:52:02.357Z,10.10
2022-10-21T01:54:45.005Z,9.40
2022-10-21T01:57:22.496Z,10.25
2022-10-21T01:59:57.564Z,9.15
2022-10-21T02:02:37.728Z,11.00
2022-10-21T02:05:23.150Z,10.48
2022-10-21T02:07:54.527Z,9.73
2022-10-21T02:10:34.842Z,11.15
2022-10-21T02:13:12.231Z,10.57
2022-10-21T02:15:44.858Z,10.43
2022-10-21T02:18:24.635Z,10.10
2022-10-21T02:21:08.198Z,10.13
2022-10-21T02:24:04.722Z,10.45
2022-10-21T02:26:34.705Z,10.95
2022-10-21T02:29:04.953Z,10.75
2022-10-21T02:32:13.107Z,11.02
2022-10-21T02:35:18.649Z,11.07
2022-10-21T02:38:06.024Z,12.23
2022-10-21T02:40:48.510Z,9.55
2022-10-21T02:43:55.576Z,10.55
2022-10-21T02:46:35.076Z,10.88
2022-10-21T02:49:05.036Z,10.35
2022-10-21T02:51:36.097Z,11.00
2022-10-21T02:54:06.021Z,11.07
2022-10-21T02:56:35.825Z,11.00
2022-10-21T02:59:05.676Z,11.93
2022-10-21T03:01:35.485Z,10.77
2022-10-21T03:04:05.399Z,11.98
2022-10-21T03:06:35.521Z,10.48
2022-10-21T03:09:05.518Z,9.98
2022-10-21T03:11:35.343Z,10.65
2022-10-21T03:14:05.092Z,11.07
2022-10-21T03:16:34.883Z,11.40
2022-10-21T03:19:04.874Z,11.27
2022-10-21T03:21:34.636Z,10.32
2022-10-21T03:24:10.904Z,10.95
2022-10-21T03:26:49.516Z,10.80
2022-10-21T03:29:19.279Z,10.88
2022-10-21T03:31:49.195Z,11.35
2022-10-21T03:34:18.964Z,11.65
2022-10-21T03:36:49.048Z,11.02
2022-10-21T03:39:18.807Z,10.85
2022-10-21T03:41:48.565Z,11.52
2022-10-21T03:44:18.321Z,11.05
2022-10-21T03:46:48.076Z,10.63
2022-10-21T03:49:21.359Z,11.55
2022-10-21T03:51:51.355Z,11.57
2022-10-21T03:54:21.542Z,11.52
2022-10-21T03:56:51.374Z,10.93
2022-10-21T03:59:20.768Z,10.90
2022-10-21T04:01:50.501Z,12.18
2022-10-21T04:04:20.303Z,11.57
2022-10-21T04:06:50.102Z,12.63
2022-10-21T04:09:19.920Z,11.63
2022-10-21T04:11:49.929Z,11.50
2022-10-21T04:14:20.120Z,10.90
2022-10-21T04:16:53.589Z,11.80
2022-10-21T04:19:31.960Z,10.98
2022-10-21T04:22:01.650Z,12.05
2022-10-21T04:24:31.481Z,11.95
2022-10-21T04:27:01.220Z,11.80
2022-10-21T04:29:30.952Z,11.82
2022-10-21T04:32:00.674Z,11.93
2022-10-21T04:34:30.845Z,12.93
2022-10-21T04:37:04.042Z,12.25
2022-10-21T04:39:34.972Z,12.30
2022-10-21T04:42:05.811Z,12.98
2022-10-21T04:44:39.802Z,12.50
2022-10-21T04:47:09.620Z,12.27
2022-10-21T04:49:39.332Z,14.13
2022-10-21T04:52:09.082Z,12.95
2022-10-21T04:54:38.823Z,12.45
2022-10-21T04:57:08.712Z,12.77
2022-10-21T04:59:38.458Z,13.10
2022-10-21T05:02:08.193Z,12.55
2022-10-21T05:04:37.861Z,12.48
2022-10-21T05:07:09.205Z,12.75
2022-10-21T05:09:38.353Z,12.90
2022-10-21T05:12:12.111Z,13.30
2022-10-21T05:14:42.278Z,12.00
2022-10-21T05:17:11.909Z,14.73
2022-10-21T05:19:41.632Z,13.73
2022-10-21T05:22:13.056Z,13.38
2022-10-21T05:24:42.648Z,13.95
2022-10-21T05:27:12.289Z,13.95
2022-10-21T05:29:42.010Z,11.98
2022-10-21T05:32:11.776Z,13.68
2022-10-21T05:34:41.610Z,13.10
2022-10-21T05:37:11.950Z,13.23
2022-10-21T05:42:30.928Z,13.65
2022-10-21T05:45:00.744Z,13.27
2022-10-21T05:47:30.647Z,12.93
2022-10-21T05:50:00.436Z,12.65
2022-10-21T05:52:30.324Z,12.35
2022-10-21T05:55:00.150Z,13.25
2022-10-21T05:57:34.552Z,12.45
2022-10-21T06:00:07.349Z,13.25
2022-10-21T06:02:37.504Z,13.70
2022-10-21T06:05:08.598Z,13.77
2022-10-21T06:07:38.739Z,13.18
2022-10-21T06:10:09.900Z,13.80
2022-10-21T06:12:40.325Z,12.95
2022-10-21T06:15:11.054Z,14.15
2022-10-21T06:17:41.239Z,13.52
2022-10-21T06:20:11.700Z,14.13
2022-10-21T06:22:41.618Z,15.38
2022-10-21T06:25:11.652Z,16.20
2022-10-21T06:27:41.760Z,15.55
2022-10-21T06:30:11.794Z,14.38
2022-10-21T06:32:41.530Z,15.25
2022-10-21T06:35:11.417Z,15.52
2022-10-21T06:37:41.367Z,15.70
2022-10-21T06:40:12.030Z,15.02
2022-10-21T06:42:41.938Z,15.15
2022-10-21T06:45:11.897Z,13.93
2022-10-21T06:47:42.156Z,14.60
2022-10-21T06:50:13.920Z,14.10
2022-10-21T06:52:44.094Z,14.15
2022-10-21T06:55:13.895Z,14.40
2022-10-21T06:57:44.716Z,13.32
2022-10-21T07:00:15.724Z,13.80
2022-10-21T07:02:45.520Z,13.63
2022-10-21T07:05:15.418Z,12.77
2022-10-21T07:07:45.338Z,14.00
2022-10-21T07:10:15.163Z,14.35
2022-10-21T07:12:46.810Z,14.48
2022-10-21T07:15:16.961Z,13.95
2022-10-21T07:17:46.978Z,14.48
2022-10-21T07:20:16.797Z,15.27
2022-10-21T07:22:46.612Z,13.50
2022-10-21T07:25:16.355Z,15.45
2022-10-21T07:27:48.551Z,13.82
2022-10-21T07:30:18.840Z,14.57
2022-10-21T07:32:48.902Z,13.98
2022-10-21T07:35:18.794Z,14.75
2022-10-21T07:37:48.571Z,14.15
2022-10-21T07:40:18.404Z,13.80
2022-10-21T07:42:48.243Z,13.77
2022-10-21T07:45:18.052Z,13.57
2022-10-21T07:47:48.954Z,14.20
2022-10-21T07:50:18.768Z,14.73
2022-10-21T07:52:56.054Z,13.15
2022-10-21T07:55:31.092Z,14.63
2022-10-21T07:58:01.012Z,14.10
2022-10-21T08:00:30.994Z,13.18
2022-10-21T08:03:00.892Z,13.82
2022-10-21T08:05:30.863Z,13.70
2022-10-21T08:08:00.727Z,13.35
2022-10-21T08:10:30.504Z,13.75
2022-10-21T08:13:00.283Z,14.40
2022-10-21T08:15:30.045Z,14.20
2022-10-21T08:17:59.859Z,13.52
2022-10-21T08:20:29.665Z,12.55
2022-10-21T08:22:59.511Z,14.43
2022-10-21T08:25:30.180Z,14.30
2022-10-21T08:28:00.103Z,13.93
2022-10-21T08:30:31.804Z,12.27
2022-10-21T08:33:02.123Z,14.13
2022-10-21T08:35:32.020Z,13.52
2022-10-21T08:38:01.830Z,12.45
2022-10-21T08:40:45.878Z,13.85
2022-10-21T08:43:33.051Z,13.55
2022-10-21T08:46:27.107Z,13.65
2022-10-21T08:49:16.568Z,13.07
2022-10-21T08:52:11.070Z,13.07
2022-10-21T08:55:07.846Z,13.73
2022-10-21T08:57:38.112Z,14.15
2022-10-21T09:00:38.633Z,13.02
2022-10-21T09:03:48.293Z,13.65
2022-10-21T09:06:48.834Z,13.15
2022-10-21T09:09:48.693Z,13.82
2022-10-21T09:13:33.558Z,14.50
2022-10-21T09:16:51.742Z,13.15
2022-10-21T09:20:16.478Z,12.60
2022-10-21T09:23:18.702Z,12.75
2022-10-21T09:26:20.004Z,12.45
2022-10-21T09:28:51.410Z,13.85
2022-10-21T09:31:22.366Z,13.98
2022-10-21T09:34:15.369Z,13.57
2022-10-21T09:36:52.893Z,13.77
2022-10-21T09:39:46.380Z,12.93
2022-10-21T09:42:29.522Z,12.68
2022-10-21T09:45:39.188Z,12.13
2022-10-21T09:48:17.961Z,13.18
2022-10-21T09:50:59.404Z,12.32
2022-10-21T09:57:10.594Z,11.82
2022-10-21T10:00:02.400Z,13.00
2022-10-21T10:02:41.159Z,12.07
2022-10-21T10:05:49.414Z,13.70
2022-10-21T10:08:47.491Z,12.48
2022-10-21T10:11:21.865Z,12.15
2022-10-21T10:13:53.962Z,12.50
2022-10-21T10:16:33.187Z,13.38
2022-10-21T10:19:19.408Z,13.00
2022-10-21T10:22:15.978Z,12.90
2022-10-21T10:24:45.359Z,12.57
2022-10-21T10:27:26.709Z,12.48
2022-10-21T10:30:01.314Z,12.80
2022-10-21T10:32:35.748Z,13.18
2022-10-21T10:35:21.390Z,13.27
2022-10-21T10:37:51.142Z,12.95
2022-10-21T10:40:39.530Z,12.13
2022-10-21T10:43:26.332Z,13.23
2022-10-21T10:46:08.610Z,13.50
2022-10-21T10:48:49.158Z,12.35
2022-10-21T10:51:33.956Z,12.90
2022-10-21T10:54:06.544Z,28.33
2022-10-21T10:56:55.911Z,70.22
2022-10-21T11:00:14.122Z,30.70
2022-10-21T11:03:13.705Z,14.23
2022-10-21T11:06:05.891Z,13.07
2022-10-21T11:08:52.073Z,14.18
2022-10-21T11:11:37.426Z,13.73
2022-10-21T11:14:21.852Z,14.13
2022-10-21T11:17:21.142Z,14.30
2022-10-21T11:20:36.886Z,14.70
2022-10-21T11:23:39.444Z,13.77
2022-10-21T11:26:42.192Z,13.73
2022-10-21T11:29:47.217Z,14.15
2022-10-21T11:32:48.614Z,14.15
2022-10-21T11:35:56.719Z,13.40
2022-10-21T11:39:21.260Z,12.82
2022-10-21T11:42:16.875Z,14.20
2022-10-21T11:45:44.470Z,12.98
2022-10-21T11:49:21.866Z,14.20
2022-10-21T11:52:15.179Z,12.95
2022-10-21T11:55:24.909Z,14.65
2022-10-21T11:58:38.582Z,13.83
2022-10-21T12:01:39.563Z,12.10
2022-10-21T12:04:51.154Z,12.98
2022-10-21T12:08:16.109Z,12.00
2022-10-21T12:11:00.688Z,11.95
2022-10-21T12:13:44.586Z,10.98
2022-10-21T12:16:28.237Z,10.45
2022-10-21T12:19:06.538Z,9.55
2022-10-21T12:21:45.987Z,9.20
2022-10-21T12:24:41.484Z,9.55
2022-10-21T12:27:29.693Z,8.88
2022-10-21T12:30:23.536Z,8.45
2022-10-21T12:33:16.126Z,9.05
2022-10-21T12:35:57.028Z,8.88
2022-10-21T12:38:51.936Z,9.55
2022-10-21T12:41:39.487Z,8.65
2022-10-21T12:44:28.141Z,8.23
2022-10-21T12:47:25.736Z,8.35
2022-10-21T12:50:16.985Z,8.98
2022-10-21T12:53:27.884Z,9.15
2022-10-21T12:56:01.806Z,9.90
2022-10-21T12:58:45.532Z,9.70
2022-10-21T13:02:06.266Z,8.95
2022-10-21T13:04:36.310Z,9.50
2022-10-21T13:07:33.239Z,8.82
2022-10-21T13:10:04.947Z,9.02
2022-10-21T13:12:34.894Z,8.75
2022-10-21T13:15:23.054Z,10.02
2022-10-21T13:17:55.614Z,9.23
2022-10-21T13:20:25.409Z,9.43
2022-10-21T13:23:36.118Z,10.25
2022-10-21T13:26:19.364Z,9.85
2022-10-21T13:29:11.493Z,9.88
2022-10-21T13:31:44.100Z,9.98
2022-10-21T13:34:30.370Z,10.23
2022-10-21T13:37:00.393Z,10.63
2022-10-21T13:39:35.317Z,9.38
2022-10-21T13:42:17.485Z,9.02
2022-10-21T13:45:04.095Z,9.70
2022-10-21T13:47:35.906Z,10.32
2022-10-21T13:50:28.389Z,10.98
2022-10-21T13:52:59.740Z,11.20
2022-10-21T13:55:29.611Z,11.90
2022-10-21T13:57:59.405Z,11.52
2022-10-21T14:00:32.637Z,11.60
2022-10-21T14:03:06.240Z,11.65
2022-10-21T14:05:52.457Z,11.63
2022-10-21T14:08:48.317Z,11.10
2022-10-21T14:11:34.785Z,10.10
2022-10-21T14:14:16.027Z,9.80
2022-10-21T14:17:01.035Z,9.88
2022-10-21T14:19:38.701Z,11.07
2022-10-21T14:22:14.379Z,10.33
2022-10-21T14:24:51.449Z,10.80
2022-10-21T14:27:34.021Z,9.95
2022-10-21T14:30:10.245Z,10.95
2022-10-21T14:32:40.579Z,10.85
2022-10-21T14:35:10.490Z,8.80
2022-10-21T14:38:03.881Z,9.98
2022-10-21T14:40:42.838Z,8.82
2022-10-21T14:43:12.475Z,9.27
2022-10-21T14:45:53.759Z,9.38
2022-10-21T14:48:48.310Z,9.98
2022-10-21T14:51:24.253Z,10.48
2022-10-21T14:54:04.226Z,10.13
2022-10-21T14:56:44.538Z,10.25
2022-10-21T14:59:42.127Z,10.75
2022-10-21T15:02:39.035Z,11.05
2022-10-21T15:05:35.724Z,10.48
2022-10-21T15:08:20.843Z,10.43
2022-10-21T15:11:05.622Z,10.50
2022-10-21T15:13:35.801Z,10.35
2022-10-21T15:16:19.651Z,10.77
2022-10-21T15:18:53.977Z,10.40
2022-10-21T15:21:53.153Z,10.65
2022-10-21T15:24:45.196Z,9.85
2022-10-21T15:27:37.100Z,10.55
2022-10-21T15:30:20.287Z,10.50
2022-10-21T15:32:51.070Z,10.60
2022-10-21T15:35:23.696Z,10.57
2022-10-21T15:37:54.721Z,10.27
2022-10-21T15:40:22.749Z,9.80
2022-10-21T15:42:52.586Z,10.60
2022-10-21T15:45:26.031Z,11.10
2022-10-21T15:47:56.304Z,11.23
2022-10-21T15:50:27.513Z,11.52
2022-10-21T15:52:57.054Z,11.63
2022-10-21T15:55:26.819Z,10.60
2022-10-21T15:57:56.630Z,12.02
2022-10-21T16:00:26.426Z,12.55
2022-10-21T16:02:56.315Z,10.57
2022-10-21T16:05:26.223Z,11.10
2022-10-21T16:07:57.634Z,12.10
2022-10-21T16:10:37.637Z,12.00
2022-10-21T16:13:04.920Z,12.73
2022-10-21T16:18:02.516Z,12.02
2022-10-21T16:20:33.743Z,14.02
2022-10-21T16:23:03.958Z,12.82
2022-10-21T16:25:34.148Z,13.38
2022-10-21T16:28:04.905Z,13.43
2022-10-21T16:30:39.323Z,14.68
2022-10-21T16:33:11.207Z,14.70
2022-10-21T16:35:39.723Z,12.90
2022-10-21T16:38:10.169Z,14.32
2022-10-21T16:40:39.676Z,14.50
2022-10-21T16:43:09.342Z,14.02
2022-10-21T16:45:40.920Z,13.75
2022-10-21T16:48:10.944Z,13.70
2022-10-21T16:50:46.760Z,15.00
2022-10-21T16:53:17.779Z,13.73
2022-10-21T16:55:47.722Z,14.80
2022-10-21T16:58:17.462Z,15.40
2022-10-21T17:00:48.816Z,15.68
2022-10-21T17:03:18.818Z,15.05
2022-10-21T17:05:50.493Z,13.88
2022-10-21T17:08:20.465Z,15.90
2022-10-21T17:10:50.162Z,13.10
2022-10-21T17:13:20.092Z,14.00
2022-10-21T17:15:49.936Z,15.18
2022-10-21T17:18:19.818Z,14.30
2022-10-21T17:20:50.804Z,15.52
2022-10-21T17:23:20.326Z,15.52
2022-10-21T17:25:49.868Z,14.95
2022-10-21T17:28:19.533Z,15.20
2022-10-21T17:30:52.741Z,15.07
2022-10-21T17:33:20.913Z,15.30
2022-10-21T17:35:50.664Z,15.80
2022-10-21T17:38:20.430Z,16.58
2022-10-21T17:40:50.228Z,16.38
2022-10-21T17:43:20.187Z,16.80
2022-10-21T17:45:50.183Z,14.90
2022-10-21T17:48:19.664Z,15.40
2022-10-21T17:50:59.796Z,15.77
2022-10-21T17:53:30.968Z,15.77
2022-10-21T17:56:07.721Z,15.77
2022-10-21T17:58:35.890Z,15.98
2022-10-21T18:01:13.797Z,15.43
2022-10-21T18:03:42.756Z,15.02
2022-10-21T18:06:15.710Z,15.68
2022-10-21T18:08:44.913Z,14.90
2022-10-21T18:11:19.926Z,15.13
2022-10-21T18:13:52.081Z,17.05
2022-10-21T18:16:24.738Z,16.23
2022-10-21T18:18:57.252Z,16.33
2022-10-21T18:21:28.774Z,15.82
2022-10-21T18:23:58.661Z,17.80
2022-10-21T18:26:31.632Z,15.30
2022-10-21T18:29:05.311Z,16.15
2022-10-21T18:31:39.380Z,16.27
2022-10-21T18:34:09.370Z,16.23
2022-10-21T18:36:40.773Z,14.30
2022-10-21T18:39:13.164Z,16.63
2022-10-21T18:41:42.780Z,14.73
2022-10-21T18:44:14.571Z,14.23
2022-10-21T18:46:46.648Z,14.95
2022-10-21T18:49:18.391Z,12.90
2022-10-21T18:51:48.151Z,14.55
2022-10-21T18:54:17.982Z,13.75
2022-10-21T18:56:47.586Z,13.63
2022-10-21T18:59:17.520Z,12.95
2022-10-21T19:01:47.459Z,14.02
2022-10-21T19:04:17.193Z,14.68
2022-10-21T19:06:47.222Z,12.65
2022-10-21T19:09:24.419Z,14.10
2022-10-21T19:11:53.894Z,13.13
2022-10-21T19:14:24.103Z,11.77
2022-10-21T19:16:53.928Z,13.07
2022-10-21T19:19:23.723Z,14.20
2022-10-21T19:21:54.152Z,11.15
2022-10-21T19:24:24.477Z,11.65
2022-10-21T19:26:59.470Z,11.20
2022-10-21T19:29:27.848Z,12.32
2022-10-21T19:31:57.654Z,11.45
2022-10-21T19:34:27.478Z,11.82
2022-10-21T19:36:57.461Z,12.25
2022-10-21T19:39:27.252Z,11.50
2022-10-21T19:41:57.111Z,13.38
2022-10-21T19:44:26.917Z,11.35
2022-10-21T19:46:56.779Z,11.70
2022-10-21T19:49:26.507Z,12.77
2022-10-21T19:51:56.277Z,12.65
2022-10-21T19:54:26.105Z,13.05
2022-10-21T19:56:56.314Z,11.63
2022-10-21T19:59:26.314Z,12.57
2022-10-21T20:01:56.017Z,11.38
2022-10-21T20:04:25.998Z,11.90
2022-10-21T20:06:57.023Z,13.55
2022-10-21T20:09:26.886Z,15.38
2022-10-21T20:11:56.721Z,13.63
2022-10-21T20:14:26.574Z,12.82
2022-10-21T20:16:56.242Z,13.77
2022-10-21T20:19:26.220Z,14.85
2022-10-21T20:21:56.124Z,14.50
2022-10-21T20:24:25.829Z,15.45
2022-10-21T20:26:59.686Z,15.30
2022-10-21T20:29:32.044Z,15.57
2022-10-21T20:32:02.086Z,14.00
2022-10-21T20:34:34.062Z,14.95
2022-10-21T20:37:06.600Z,13.73
2022-10-21T20:39:37.813Z,12.27
2022-10-21T20:42:11.795Z,14.70
2022-10-21T20:44:42.048Z,12.60
2022-10-21T20:47:11.975Z,14.27
2022-10-21T20:49:42.292Z,13.20
2022-10-21T20:52:12.143Z,13.70
2022-10-21T20:54:41.775Z,15.07
2022-10-21T20:57:11.522Z,14.70
2022-10-21T20:59:41.295Z,14.27
2022-10-21T21:02:11.090Z,14.35
2022-10-21T21:04:41.029Z,16.25
2022-10-21T21:07:13.517Z,15.10
2022-10-21T21:10:01.592Z,14.85
2022-10-21T21:12:33.017Z,15.32
2022-10-21T21:15:03.939Z,15.20
2022-10-21T21:17:33.783Z,14.82
2022-10-21T21:20:04.273Z,15.60
2022-10-21T21:22:37.237Z,17.98
2022-10-21T21:25:08.476Z,15.13
2022-10-21T21:27:38.524Z,15.40
2022-10-21T21:30:09.300Z,14.48
2022-10-21T21:32:39.296Z,14.45
2022-10-21T21:35:09.791Z,16.02
2022-10-21T21:37:39.371Z,16.48
2022-10-21T21:40:10.496Z,15.52
2022-10-21T21:42:40.741Z,15.07
2022-10-21T21:45:11.047Z,14.60
2022-10-21T21:47:40.784Z,14.95
2022-10-21T21:50:10.518Z,14.25
2022-10-21T21:52:40.590Z,16.52
2022-10-21T21:55:10.362Z,16.90
2022-10-21T21:57:40.177Z,14.95
2022-10-21T22:00:11.459Z,13.90
2022-10-21T22:02:41.227Z,14.20
2022-10-21T22:05:10.906Z,13.35
2022-10-21T22:07:40.906Z,16.05
2022-10-21T22:10:11.980Z,15.68
2022-10-21T22:12:43.791Z,16.58
2022-10-21T22:15:29.711Z,15.55
2022-10-21T22:18:03.993Z,15.55
2022-10-21T22:20:33.771Z,15.88
2022-10-21T22:23:03.833Z,15.38
2022-10-21T22:25:33.558Z,16.88
2022-10-21T22:28:03.513Z,14.40
2022-10-21T22:30:33.252Z,17.58
2022-10-21T22:33:00.651Z,16.65
2022-10-21T22:35:28.356Z,15.95
2022-10-21T22:37:58.115Z,14.85
2022-10-21T22:40:27.926Z,15.75
2022-10-21T22:42:57.872Z,15.77
2022-10-21T22:45:27.784Z,15.43
2022-10-21T22:47:57.775Z,15.20
2022-10-21T22:50:27.746Z,15.27
2022-10-21T22:52:57.710Z,16.70
2022-10-21T22:55:27.586Z,14.60
2022-10-21T22:57:57.540Z,16.40
2022-10-21T23:00:27.730Z,15.52
2022-10-21T23:02:57.626Z,15.05
2022-10-21T23:05:27.460Z,16.08
2022-10-21T23:07:57.289Z,15.80
2022-10-21T23:10:27.207Z,14.57
2022-10-21T23:12:56.922Z,13.95
2022-10-21T23:15:26.946Z,14.32
2022-10-21T23:17:58.395Z,15.13
2022-10-21T23:20:28.255Z,14.00
2022-10-21T23:22:58.151Z,13.43
2022-10-21T23:25:28.984Z,13.57
2022-10-21T23:27:58.352Z,14.15
2022-10-21T23:30:27.939Z,14.10
2022-10-21T23:32:57.715Z,13.85
2022-10-21T23:35:27.506Z,10.82
2022-10-21T23:37:57.524Z,11.95
2022-10-21T23:40:28.558Z,11.50
2022-10-21T23:42:57.718Z,11.07
2022-10-21T23:45:27.393Z,14.38
2022-10-21T23:47:57.155Z,13.77
2022-10-21T23:50:27.806Z,12.90
2022-10-21T23:52:57.715Z,11.70
2022-10-21T23:57:57.974Z,9.70
